KBEH/BEH METAR and TAF weather

Enter ICAO airport designator
Station Type Date Time Source
KBEH METAR 2019/06/26 05:53 UTC NOAA

KBEH 260553Z AUTO 00000KT 10SM CLR 20/16 A2994 RMK AO2 SLP133 T02000161 10222 20200 51013


Station Type Date Time Source
KBEH Decoded METAR 2019/06/26 05:53 UTC NOAA

SOUTHWEST MICHIGAN REGIONAL, MI, United States (KBEH) 42-08N 86-25W 191M
Jun 26, 2019 - 01:53 AM EDT / 2019.06.26 0553 UTC
Wind: Calm:0
Visibility: 10 mile(s):0
Sky conditions: clear
Temperature: 68.0 F (20.0 C)
Dew Point: 61.0 F (16.1 C)
Relative Humidity: 78%
Pressure (altimeter): 29.94 in. Hg (1013 hPa)
Pressure tendency: 0.04 inches (1.3 hPa) higher than three hours ago
ob: KBEH 260553Z AUTO 00000KT 10SM CLR 20/16 A2994 RMK AO2 SLP133 T02000161 10222 20200 51013
cycle: 6

Station Type Date Time Source
KBEH TAF UTC NOAA

Error!

Example: see airport list